Time;durP1;ratioP1;P1;durP2;ratioP2;P2;SDS_P1;SDS_P2;PMS_P1;PMS_P2;Temp;Humidity;BMP_temperature;BMP_pressure;BME280_temperature;BME280_humidity;BME280_pressure;Samples;Min_cycle;Max_cycle;Signal;HPM_P1;HPM_P2
2020/12/19 00:01:33;;;;;;;14.50;5.35;;;6.10;99.90;;;;;;5019503;28;20525;-83
2020/12/19 00:03:59;;;;;;;11.65;5.60;;;6.00;99.90;;;;;;5019346;28;20105;-83
2020/12/19 00:06:25;;;;;;;11.27;5.55;;;6.10;99.90;;;;;;5020043;28;20088;-83
2020/12/19 00:08:51;;;;;;;12.93;5.72;;;6.00;99.90;;;;;;5001351;28;20037;-83
2020/12/19 00:11:17;;;;;;;11.20;6.10;;;6.00;99.90;;;;;;5018494;28;20041;-83
2020/12/19 00:13:43;;;;;;;9.02;4.80;;;5.90;99.90;;;;;;5002613;28;20536;-82
2020/12/19 00:16:14;;;;;;;10.63;5.30;;;5.90;99.90;;;;;;5019441;28;20501;-83
2020/12/19 00:18:40;;;;;;;10.07;4.85;;;5.90;99.90;;;;;;5026352;28;20341;-81
2020/12/19 00:21:05;;;;;;;15.00;6.38;;;6.00;99.90;;;;;;5018610;28;20034;-83
2020/12/19 00:23:31;;;;;;;11.38;5.68;;;6.00;99.90;;;;;;5022238;28;20041;-83
2020/12/19 00:25:56;;;;;;;15.05;5.68;;;6.00;99.90;;;;;;5020185;28;20037;-83
2020/12/19 00:28:22;;;;;;;12.95;4.80;;;6.20;99.90;;;;;;5014397;28;20034;-83
2020/12/19 00:30:47;;;;;;;15.02;5.28;;;6.10;99.90;;;;;;5014831;28;20704;-81
2020/12/19 00:33:13;;;;;;;10.27;5.43;;;6.10;99.90;;;;;;5022133;28;20029;-82
2020/12/19 00:35:38;;;;;;;13.38;5.60;;;6.00;99.90;;;;;;5022744;28;20071;-83
2020/12/19 00:38:04;;;;;;;12.07;5.43;;;6.00;99.90;;;;;;5021283;28;20026;-83
2020/12/19 00:40:30;;;;;;;12.93;4.78;;;6.00;99.90;;;;;;5025136;28;20030;-82
2020/12/19 00:42:55;;;;;;;9.70;5.25;;;5.90;99.90;;;;;;5019839;28;20527;-82
2020/12/19 00:45:21;;;;;;;10.90;5.13;;;5.90;99.90;;;;;;5019421;28;20080;-83
2020/12/19 00:47:46;;;;;;;10.43;5.15;;;5.90;99.90;;;;;;5015589;28;20113;-82
2020/12/19 00:50:12;;;;;;;12.77;6.20;;;6.00;99.90;;;;;;5014150;28;20517;-84
2020/12/19 00:52:37;;;;;;;9.18;4.80;;;6.00;99.90;;;;;;5019139;28;20164;-84
2020/12/19 00:55:06;;;;;;;14.27;5.68;;;5.90;99.90;;;;;;5023028;28;20074;-82
2020/12/19 00:57:32;;;;;;;10.20;5.45;;;5.90;99.90;;;;;;5018408;28;20038;-83
2020/12/19 00:59:59;;;;;;;7.85;4.82;;;5.90;99.90;;;;;;4998267;28;20069;-83
2020/12/19 01:02:25;;;;;;;9.90;5.45;;;5.90;99.90;;;;;;5015560;28;20380;-81
2020/12/19 01:04:50;;;;;;;10.55;5.03;;;6.00;99.90;;;;;;4999871;28;20307;-83
2020/12/19 01:07:16;;;;;;;8.52;5.15;;;5.90;99.90;;;;;;5018344;28;20034;-83
2020/12/19 01:09:41;;;;;;;12.95;5.35;;;5.90;99.90;;;;;;5020726;28;20087;-81
2020/12/19 01:12:07;;;;;;;8.68;4.38;;;6.00;99.90;;;;;;5021363;28;20115;-82
2020/12/19 01:14:33;;;;;;;9.57;4.80;;;6.10;99.90;;;;;;5024488;28;20044;-81
2020/12/19 01:17:02;;;;;;;10.73;5.18;;;6.20;99.90;;;;;;5013408;28;20049;-81
2020/12/19 01:19:28;;;;;;;12.20;4.40;;;6.30;99.90;;;;;;5013180;28;20088;-82
2020/12/19 01:21:53;;;;;;;10.90;4.13;;;6.30;99.90;;;;;;5001625;28;20726;-82
2020/12/19 01:24:19;;;;;;;9.45;3.83;;;6.60;99.90;;;;;;5015162;28;20041;-82
2020/12/19 01:26:46;;;;;;;8.40;4.43;;;6.60;99.90;;;;;;5008618;28;20033;-81
2020/12/19 01:29:12;;;;;;;10.38;4.30;;;6.80;99.90;;;;;;5011982;28;20041;-81
2020/12/19 01:31:37;;;;;;;8.80;4.72;;;6.80;99.70;;;;;;5013650;28;20034;-82
2020/12/19 01:34:03;;;;;;;7.70;3.92;;;6.80;99.80;;;;;;4996522;28;20038;-82
2020/12/19 01:36:28;;;;;;;8.35;4.50;;;6.80;99.90;;;;;;5019698;28;20453;-82
2020/12/19 01:38:54;;;;;;;10.88;3.85;;;6.80;99.70;;;;;;5009466;28;20033;-82
2020/12/19 01:41:21;;;;;;;8.98;3.70;;;6.90;98.70;;;;;;4999846;28;20028;-82
2020/12/19 01:43:57;;;;;;;7.63;4.03;;;6.80;98.70;;;;;;5019380;28;20088;-82
2020/12/19 01:46:27;;;;;;;7.45;4.10;;;6.80;98.10;;;;;;5014494;28;20425;-82
2020/12/19 01:48:54;;;;;;;8.60;4.55;;;6.70;98.40;;;;;;5011404;28;20079;-81
2020/12/19 01:51:20;;;;;;;11.15;4.07;;;6.60;98.50;;;;;;5015497;28;20034;-81
2020/12/19 01:53:46;;;;;;;10.23;4.20;;;6.60;99.10;;;;;;5018439;28;20038;-81
2020/12/19 01:56:12;;;;;;;9.20;4.45;;;6.40;99.20;;;;;;5021520;28;20055;-84
2020/12/19 01:58:38;;;;;;;9.82;4.07;;;6.40;99.60;;;;;;5015215;28;20129;-84
2020/12/19 02:01:07;;;;;;;10.43;4.55;;;6.30;99.70;;;;;;5012702;28;20448;-83
2020/12/19 02:03:33;;;;;;;11.35;4.85;;;6.20;99.90;;;;;;4997267;28;20117;-83
2020/12/19 02:05:59;;;;;;;8.98;3.78;;;6.20;99.90;;;;;;5002409;28;20102;-84
2020/12/19 02:08:24;;;;;;;9.68;4.03;;;6.10;99.90;;;;;;5021592;28;20037;-82
2020/12/19 02:10:50;;;;;;;9.10;4.45;;;6.10;99.90;;;;;;5030334;28;20079;-82
2020/12/19 02:13:15;;;;;;;9.05;4.20;;;6.00;99.90;;;;;;5040498;28;20079;-83
2020/12/19 02:15:45;;;;;;;8.55;4.22;;;6.00;99.90;;;;;;5018929;28;20589;-82
2020/12/19 02:18:12;;;;;;;8.60;4.45;;;6.00;99.90;;;;;;5002134;28;20057;-83
2020/12/19 02:20:38;;;;;;;8.60;3.72;;;5.90;99.90;;;;;;5038867;28;20042;-83
2020/12/19 02:23:06;;;;;;;11.75;4.05;;;5.90;99.90;;;;;;5031034;28;20052;-82
2020/12/19 02:25:37;;;;;;;9.15;4.00;;;5.90;99.90;;;;;;5024990;28;20041;-84
2020/12/19 02:28:05;;;;;;;5.22;3.30;;;5.80;99.90;;;;;;5021655;28;20042;-83
2020/12/19 02:30:31;;;;;;;9.48;4.47;;;5.70;99.90;;;;;;5022376;28;20034;-83
2020/12/19 02:32:56;;;;;;;6.50;3.50;;;5.80;99.90;;;;;;5024441;28;20037;-84
2020/12/19 02:35:23;;;;;;;10.13;4.28;;;5.70;99.90;;;;;;5008545;28;20459;-82
2020/12/19 02:37:48;;;;;;;5.97;3.40;;;5.80;99.90;;;;;;5024305;28;20042;-83
2020/12/19 02:40:14;;;;;;;11.98;4.18;;;5.70;99.90;;;;;;5004139;28;20566;-83
2020/12/19 02:42:40;;;;;;;6.90;3.60;;;5.70;99.90;;;;;;5022997;28;20045;-83
2020/12/19 02:45:05;;;;;;;8.15;3.72;;;5.70;99.90;;;;;;5021901;28;20053;-83
2020/12/19 02:47:31;;;;;;;8.70;4.18;;;5.60;99.90;;;;;;5019131;28;20511;-82
2020/12/19 02:49:56;;;;;;;8.15;3.80;;;5.60;99.90;;;;;;5006154;28;20073;-82
2020/12/19 02:52:22;;;;;;;9.30;3.47;;;5.60;99.90;;;;;;5015875;28;20027;-82
2020/12/19 02:54:47;;;;;;;7.50;3.65;;;5.60;99.90;;;;;;5024183;28;20045;-83
2020/12/19 02:57:13;;;;;;;11.20;4.53;;;5.50;99.90;;;;;;5028207;28;20034;-82
2020/12/19 02:59:38;;;;;;;9.95;4.15;;;5.50;99.90;;;;;;5025701;28;20038;-82
2020/12/19 03:02:04;;;;;;;8.68;3.97;;;5.50;99.90;;;;;;5019613;28;20343;-82
2020/12/19 03:04:30;;;;;;;11.65;3.60;;;5.60;99.90;;;;;;5007155;28;20037;-83
2020/12/19 03:06:55;;;;;;;6.47;3.47;;;5.70;99.90;;;;;;4999325;28;20034;-82
2020/12/19 03:09:21;;;;;;;7.93;3.50;;;5.70;99.90;;;;;;5014540;28;20500;-82
2020/12/19 03:11:46;;;;;;;12.27;4.00;;;5.70;99.90;;;;;;5026906;28;20064;-82
2020/12/19 03:14:12;;;;;;;6.00;3.05;;;5.70;99.90;;;;;;5024408;28;20026;-82
2020/12/19 03:16:37;;;;;;;6.90;3.38;;;5.70;99.90;;;;;;5005481;28;20048;-83
2020/12/19 03:19:03;;;;;;;6.72;3.75;;;5.60;99.90;;;;;;5015116;28;20582;-82
2020/12/19 03:21:29;;;;;;;7.43;3.42;;;5.70;99.90;;;;;;5019392;28;20034;-82
2020/12/19 03:23:54;;;;;;;6.60;3.78;;;5.60;99.90;;;;;;5013056;28;20042;-83
2020/12/19 03:26:20;;;;;;;5.90;3.45;;;5.60;99.90;;;;;;5014227;28;20065;-83
2020/12/19 03:28:45;;;;;;;9.27;3.30;;;5.60;99.90;;;;;;5017882;28;20034;-82
2020/12/19 03:31:11;;;;;;;10.52;3.53;;;5.50;99.90;;;;;;5013167;28;20026;-82
2020/12/19 03:33:36;;;;;;;8.07;3.15;;;5.50;99.90;;;;;;5015609;28;20616;-83
2020/12/19 03:36:02;;;;;;;5.72;3.17;;;5.50;99.90;;;;;;5015714;28;20552;-83
2020/12/19 03:38:28;;;;;;;6.43;3.47;;;5.50;99.90;;;;;;5019891;28;20075;-83
2020/12/19 03:40:53;;;;;;;7.53;3.90;;;5.40;99.90;;;;;;5019587;28;20129;-83
2020/12/19 03:43:19;;;;;;;7.70;3.42;;;5.40;99.90;;;;;;5024774;28;20272;-83
2020/12/19 03:45:44;;;;;;;11.73;3.58;;;5.40;99.90;;;;;;5024668;28;20045;-83
2020/12/19 03:48:10;;;;;;;5.43;2.97;;;5.30;99.90;;;;;;4998782;28;20037;-81
2020/12/19 03:50:36;;;;;;;10.13;3.60;;;5.30;99.90;;;;;;5027427;28;20099;-81
2020/12/19 03:53:01;;;;;;;13.95;4.20;;;5.30;99.90;;;;;;4996856;28;20045;-83
2020/12/19 03:55:27;;;;;;;12.60;6.50;;;5.40;99.90;;;;;;5004923;28;20034;-81
2020/12/19 03:57:52;;;;;;;11.75;5.47;;;5.30;99.90;;;;;;5016874;28;20476;-83
2020/12/19 04:00:18;;;;;;;12.75;6.85;;;5.30;99.90;;;;;;5018571;28;20032;-83
2020/12/19 04:02:43;;;;;;;11.75;5.97;;;5.20;99.90;;;;;;5020524;28;20551;-83
2020/12/19 04:05:10;;;;;;;20.05;6.88;;;5.20;99.90;;;;;;5018181;28;20399;-83
2020/12/19 04:07:37;;;;;;;15.80;7.22;;;5.10;99.90;;;;;;5023865;28;20038;-84
2020/12/19 04:10:07;;;;;;;20.30;7.82;;;5.10;99.90;;;;;;5018553;28;20825;-84
2020/12/19 04:12:34;;;;;;;19.35;7.30;;;5.10;99.90;;;;;;5017628;28;20079;-83
2020/12/19 04:14:59;;;;;;;17.80;7.45;;;5.00;99.90;;;;;;5017151;28;20506;-83
2020/12/19 04:17:25;;;;;;;22.60;8.43;;;5.00;99.90;;;;;;5021066;28;20053;-83
2020/12/19 04:19:51;;;;;;;14.35;7.55;;;5.00;99.90;;;;;;5017174;28;20140;-82
2020/12/19 04:22:16;;;;;;;13.30;7.65;;;4.90;99.90;;;;;;5018885;28;20117;-81
2020/12/19 04:24:42;;;;;;;14.80;7.53;;;4.90;99.90;;;;;;5017196;28;20079;-83
2020/12/19 04:27:08;;;;;;;21.45;8.05;;;4.80;99.90;;;;;;5017401;28;20034;-82
2020/12/19 04:29:33;;;;;;;18.23;9.05;;;4.70;99.90;;;;;;5017646;28;20199;-82
2020/12/19 04:31:59;;;;;;;13.93;7.43;;;4.70;99.90;;;;;;5017914;28;20057;-82
2020/12/19 04:34:26;;;;;;;14.85;7.88;;;4.60;99.90;;;;;;5031105;28;20033;-83
2020/12/19 04:36:52;;;;;;;13.40;7.15;;;4.60;99.90;;;;;;5031919;28;20047;-83
2020/12/19 04:39:18;;;;;;;15.48;7.10;;;4.50;99.90;;;;;;5034081;28;20026;-82
2020/12/19 04:41:44;;;;;;;14.80;7.30;;;4.50;99.90;;;;;;5030770;28;20064;-80
2020/12/19 04:44:11;;;;;;;18.42;7.10;;;4.40;99.90;;;;;;5028038;28;20025;-83
2020/12/19 04:46:40;;;;;;;14.40;6.43;;;4.40;99.90;;;;;;5021164;28;20097;-83
2020/12/19 04:49:06;;;;;;;19.52;7.70;;;4.40;99.90;;;;;;5006195;28;20063;-84
2020/12/19 04:51:34;;;;;;;13.25;7.00;;;4.40;99.90;;;;;;5032923;28;20034;-83
2020/12/19 04:53:59;;;;;;;16.20;6.93;;;4.40;99.90;;;;;;5030738;28;20038;-83
2020/12/19 04:56:28;;;;;;;14.98;7.43;;;4.50;99.90;;;;;;5020709;28;20059;-83
2020/12/19 04:58:55;;;;;;;16.63;7.82;;;4.50;99.90;;;;;;5000898;28;20116;-83
2020/12/19 05:01:20;;;;;;;14.52;6.30;;;4.50;99.90;;;;;;5012638;28;20033;-83
2020/12/19 05:03:50;;;;;;;13.60;6.47;;;4.40;99.90;;;;;;5012562;28;20046;-83
2020/12/19 05:06:20;;;;;;;15.40;6.95;;;4.50;99.90;;;;;;5016711;28;20037;-83
2020/12/19 05:08:46;;;;;;;15.70;7.53;;;4.40;99.90;;;;;;5014320;28;20056;-82
2020/12/19 05:11:13;;;;;;;14.93;6.80;;;4.40;99.90;;;;;;4997284;28;20516;-83
2020/12/19 05:13:41;;;;;;;12.43;7.00;;;4.40;99.90;;;;;;5002684;28;20068;-84
2020/12/19 05:16:10;;;;;;;17.60;6.95;;;4.40;99.90;;;;;;5012165;28;20575;-81
2020/12/19 05:18:37;;;;;;;12.65;7.05;;;4.40;99.90;;;;;;5011570;28;20100;-81
2020/12/19 05:21:04;;;;;;;14.25;6.88;;;4.30;99.90;;;;;;5010860;28;20048;-82
2020/12/19 05:23:32;;;;;;;22.75;7.60;;;4.30;99.90;;;;;;5008535;28;20049;-82
2020/12/19 05:25:57;;;;;;;17.30;7.95;;;4.20;99.90;;;;;;5016742;28;20653;-83
2020/12/19 05:28:23;;;;;;;15.35;7.88;;;4.20;99.90;;;;;;5019764;28;20034;-82
2020/12/19 05:30:50;;;;;;;14.43;7.50;;;4.20;99.90;;;;;;5013726;28;20049;-82
2020/12/19 05:33:16;;;;;;;11.43;6.50;;;4.20;99.90;;;;;;4997700;28;20030;-82
2020/12/19 05:35:41;;;;;;;14.00;7.28;;;4.10;99.90;;;;;;5016108;28;20052;-82
2020/12/19 05:38:07;;;;;;;13.73;6.53;;;4.10;99.90;;;;;;4995115;28;20466;-83
2020/12/19 05:40:33;;;;;;;13.07;6.40;;;4.10;99.90;;;;;;5003779;28;20170;-81
2020/12/19 05:43:00;;;;;;;13.18;6.90;;;4.10;99.90;;;;;;5025649;28;20105;-81
2020/12/19 05:45:27;;;;;;;13.38;6.68;;;4.00;99.90;;;;;;5018601;28;20038;-82
2020/12/19 05:47:53;;;;;;;12.65;6.50;;;4.00;99.90;;;;;;5019931;28;20041;-81
2020/12/19 05:50:19;;;;;;;14.32;6.78;;;4.00;99.90;;;;;;5020793;28;20042;-81
2020/12/19 05:52:45;;;;;;;17.50;7.78;;;4.00;99.90;;;;;;5020797;28;20754;-84
2020/12/19 05:55:13;;;;;;;16.70;7.40;;;3.90;99.90;;;;;;5028158;28;20090;-81
2020/12/19 05:57:40;;;;;;;29.08;8.50;;;3.90;99.90;;;;;;5021314;28;20052;-84
2020/12/19 06:00:10;;;;;;;20.38;7.85;;;3.90;99.90;;;;;;5023806;28;20034;-82
2020/12/19 06:02:37;;;;;;;18.42;7.15;;;3.90;99.90;;;;;;5025712;28;20049;-84
2020/12/19 06:05:08;;;;;;;17.88;8.20;;;3.80;99.90;;;;;;5027982;28;20052;-83
2020/12/19 06:07:45;;;;;;;18.25;6.93;;;3.90;99.90;;;;;;5014768;28;20060;-83
2020/12/19 06:10:13;;;;;;;15.68;7.18;;;3.80;99.90;;;;;;5022743;28;20029;-83
2020/12/19 06:12:48;;;;;;;14.32;7.57;;;3.70;99.90;;;;;;5032076;28;20665;-83
2020/12/19 06:15:27;;;;;;;18.02;7.07;;;3.70;99.90;;;;;;5032180;28;20072;-83
2020/12/19 06:18:00;;;;;;;15.52;7.03;;;3.80;99.90;;;;;;5028332;28;20042;-83
2020/12/19 06:20:28;;;;;;;14.93;7.05;;;3.80;99.90;;;;;;5007234;28;20046;-83
2020/12/19 06:22:54;;;;;;;12.70;6.75;;;3.70;99.90;;;;;;5009269;28;20578;-83
2020/12/19 06:25:39;;;;;;;13.90;6.38;;;3.70;99.90;;;;;;5031735;28;20058;-84
2020/12/19 06:28:05;;;;;;;14.93;6.60;;;3.70;99.90;;;;;;5014634;28;20101;-83
2020/12/19 06:30:31;;;;;;;16.77;6.68;;;3.70;99.90;;;;;;5028806;28;20092;-83
2020/12/19 06:33:12;;;;;;;16.17;6.95;;;3.60;99.90;;;;;;5020846;28;20041;-81
2020/12/19 06:35:46;;;;;;;12.63;6.57;;;3.60;99.90;;;;;;5020556;28;20046;-82
2020/12/19 06:38:11;;;;;;;14.30;7.03;;;3.60;99.90;;;;;;5015125;28;20025;-84
2020/12/19 06:40:38;;;;;;;14.80;6.50;;;3.60;99.90;;;;;;5019458;28;20033;-84
2020/12/19 06:43:13;;;;;;;15.60;7.57;;;3.50;99.90;;;;;;5008541;28;22249;-83
2020/12/19 06:45:39;;;;;;;17.52;7.35;;;3.50;99.90;;;;;;5031049;28;20045;-82
2020/12/19 06:48:28;;;;;;;15.30;6.80;;;3.50;99.90;;;;;;5019210;28;20041;-83
2020/12/19 06:51:04;;;;;;;15.02;7.15;;;3.50;99.90;;;;;;5017834;28;20092;-80
2020/12/19 06:53:31;;;;;;;18.38;7.82;;;3.40;99.90;;;;;;5021699;28;20029;-83
2020/12/19 06:55:58;;;;;;;16.35;8.25;;;3.50;99.90;;;;;;5013460;28;20415;-84
2020/12/19 06:58:34;;;;;;;19.35;7.57;;;3.40;99.90;;;;;;5017575;28;20112;-84
2020/12/19 07:01:01;;;;;;;23.13;7.18;;;3.40;99.90;;;;;;5021157;28;20041;-81
2020/12/19 07:03:37;;;;;;;18.02;7.47;;;3.40;99.90;;;;;;5019516;28;20418;-84
2020/12/19 07:06:16;;;;;;;13.60;7.18;;;3.40;99.90;;;;;;5015867;28;20110;-82
2020/12/19 07:08:43;;;;;;;19.13;7.40;;;3.40;99.90;;;;;;5020423;28;20034;-81
2020/12/19 07:11:32;;;;;;;13.77;5.78;;;3.40;99.90;;;;;;5014247;28;20038;-82
2020/12/19 07:13:58;;;;;;;20.08;7.93;;;3.40;99.90;;;;;;5020212;28;20129;-81
2020/12/19 07:16:42;;;;;;;14.05;6.70;;;3.40;99.90;;;;;;5024740;28;20101;-83
2020/12/19 07:19:27;;;;;;;15.18;6.53;;;3.40;99.90;;;;;;5014100;28;20037;-84
2020/12/19 07:21:58;;;;;;;13.07;7.22;;;3.40;99.90;;;;;;5000593;28;20042;-84
2020/12/19 07:24:25;;;;;;;11.82;6.70;;;3.40;99.90;;;;;;5027545;28;20064;-81
2020/12/19 07:26:52;;;;;;;17.27;7.15;;;3.40;99.90;;;;;;5024945;28;20057;-83
2020/12/19 07:29:23;;;;;;;15.98;7.18;;;3.40;99.90;;;;;;5015788;28;20030;-84
2020/12/19 07:31:54;;;;;;;13.77;7.28;;;3.40;99.90;;;;;;5019044;28;20034;-82
2020/12/19 07:34:20;;;;;;;17.60;7.95;;;3.40;99.90;;;;;;5021754;28;20026;-83
2020/12/19 07:36:48;;;;;;;14.18;7.60;;;3.40;99.90;;;;;;5028659;28;20025;-82
2020/12/19 07:39:15;;;;;;;21.30;7.75;;;3.40;99.90;;;;;;5028457;28;20022;-82
2020/12/19 07:41:45;;;;;;;15.52;7.43;;;3.40;99.90;;;;;;5022863;28;20030;-83
2020/12/19 07:44:12;;;;;;;15.65;7.35;;;3.40;99.90;;;;;;5018316;28;20069;-83
2020/12/19 07:46:49;;;;;;;17.55;8.40;;;3.40;99.90;;;;;;5013802;28;20041;-84
2020/12/19 07:49:28;;;;;;;15.75;7.55;;;3.50;99.90;;;;;;5019448;28;20038;-82
2020/12/19 07:52:06;;;;;;;17.20;7.53;;;3.60;99.90;;;;;;5014537;28;20039;-82
2020/12/19 07:54:32;;;;;;;16.13;7.57;;;3.50;99.90;;;;;;5020094;28;20062;-82
2020/12/19 07:56:59;;;;;;;13.07;7.38;;;3.60;99.90;;;;;;5013736;28;20074;-82
2020/12/19 07:59:25;;;;;;;17.88;7.47;;;3.60;99.90;;;;;;5021390;28;20029;-84
2020/12/19 08:01:52;;;;;;;23.73;8.88;;;3.60;99.90;;;;;;5015645;28;20038;-82
2020/12/19 08:04:18;;;;;;;15.05;7.47;;;3.60;99.90;;;;;;5020000;28;20073;-82
2020/12/19 08:06:47;;;;;;;22.20;9.90;;;3.70;99.90;;;;;;5016497;28;20037;-83
2020/12/19 08:09:20;;;;;;;15.52;7.63;;;3.70;99.90;;;;;;5025222;28;20436;-84
2020/12/19 08:11:50;;;;;;;20.23;8.05;;;3.80;99.90;;;;;;5020676;28;20072;-81
2020/12/19 08:14:17;;;;;;;19.20;9.07;;;3.80;99.90;;;;;;4999169;28;20489;-84
2020/12/19 08:16:44;;;;;;;14.95;8.20;;;3.90;99.90;;;;;;5018926;28;20038;-84
2020/12/19 08:19:11;;;;;;;16.38;8.55;;;3.90;99.90;;;;;;5018106;28;20026;-83
2020/12/19 08:21:38;;;;;;;16.65;7.95;;;3.90;99.90;;;;;;5024224;28;20152;-82
2020/12/19 08:24:04;;;;;;;19.98;7.75;;;4.10;99.90;;;;;;5019166;28;20042;-83
2020/12/19 08:26:29;;;;;;;19.70;7.82;;;4.10;99.90;;;;;;5004543;28;20037;-82
2020/12/19 08:29:06;;;;;;;22.45;7.40;;;4.20;99.90;;;;;;5022401;28;20060;-83
2020/12/19 08:31:36;;;;;;;16.50;7.13;;;4.30;99.90;;;;;;5020551;28;20940;-84
2020/12/19 08:34:09;;;;;;;16.25;8.65;;;4.30;99.90;;;;;;5004329;28;20109;-82
2020/12/19 08:36:35;;;;;;;19.00;7.40;;;4.50;99.90;;;;;;5028754;28;20048;-84
2020/12/19 08:39:14;;;;;;;15.05;7.30;;;4.60;99.90;;;;;;5020939;28;20141;-83
2020/12/19 08:41:40;;;;;;;18.30;7.90;;;4.70;99.90;;;;;;5020668;28;20052;-84
2020/12/19 08:44:26;;;;;;;18.67;6.70;;;4.80;99.90;;;;;;5021418;28;20046;-86
2020/12/19 08:47:04;;;;;;;18.40;8.13;;;4.90;99.90;;;;;;4986252;28;20091;-83
2020/12/19 08:49:30;;;;;;;16.80;8.57;;;5.10;99.90;;;;;;5027631;28;20491;-82
2020/12/19 08:51:57;;;;;;;15.15;7.18;;;5.10;99.90;;;;;;5014007;28;20507;-84
2020/12/19 08:54:23;;;;;;;24.23;8.10;;;5.20;99.90;;;;;;5004291;28;20064;-84
2020/12/19 08:56:51;;;;;;;23.02;7.85;;;5.20;99.90;;;;;;4995018;28;20039;-82
2020/12/19 08:59:25;;;;;;;14.93;6.97;;;5.20;99.90;;;;;;5027680;28;20096;-84
2020/12/19 09:01:55;;;;;;;14.23;7.05;;;5.40;99.90;;;;;;5022227;28;20084;-84
2020/12/19 09:04:21;;;;;;;16.95;7.05;;;5.50;99.90;;;;;;5016342;28;20040;-81
2020/12/19 09:06:53;;;;;;;21.63;7.70;;;5.50;99.90;;;;;;5017600;28;20037;-81
2020/12/19 09:09:27;;;;;;;13.70;7.32;;;5.50;99.90;;;;;;5008203;28;20025;-82
2020/12/19 09:12:06;;;;;;;16.58;7.72;;;5.70;99.90;;;;;;5021670;28;20065;-84
2020/12/19 09:14:31;;;;;;;15.02;7.32;;;5.70;99.90;;;;;;5023263;28;20041;-82
2020/12/19 09:16:57;;;;;;;23.98;7.70;;;5.80;99.90;;;;;;5016340;28;20029;-81
2020/12/19 09:19:23;;;;;;;24.35;7.95;;;5.80;99.90;;;;;;5020245;28;20052;-82
2020/12/19 09:21:55;;;;;;;16.08;7.85;;;5.90;99.90;;;;;;5015446;28;20034;-82
2020/12/19 09:24:22;;;;;;;17.38;7.97;;;6.00;99.90;;;;;;5015791;28;20030;-82
2020/12/19 09:26:47;;;;;;;16.83;7.95;;;6.10;99.90;;;;;;5017290;28;20038;-83
2020/12/19 09:29:13;;;;;;;16.50;7.63;;;6.20;99.90;;;;;;5019157;28;20060;-83
2020/12/19 09:31:38;;;;;;;16.17;8.95;;;6.30;99.90;;;;;;5028450;28;20084;-81
2020/12/19 09:34:04;;;;;;;13.50;7.30;;;6.40;99.90;;;;;;5037767;28;20623;-83
2020/12/19 09:36:30;;;;;;;23.20;8.77;;;6.50;99.90;;;;;;5034513;28;20038;-80
2020/12/19 09:38:55;;;;;;;16.83;8.27;;;6.60;99.90;;;;;;5030384;28;20101;-83
2020/12/19 09:41:21;;;;;;;14.23;7.85;;;6.60;99.90;;;;;;5029427;28;20108;-81
2020/12/19 09:43:47;;;;;;;21.40;8.50;;;6.70;99.90;;;;;;5030625;28;20041;-80
2020/12/19 09:46:16;;;;;;;18.15;8.45;;;6.80;99.90;;;;;;5032653;28;20060;-83
2020/12/19 09:48:42;;;;;;;20.75;8.60;;;6.90;99.90;;;;;;5027020;28;20034;-81
2020/12/19 09:51:08;;;;;;;16.13;8.05;;;6.90;99.90;;;;;;5009345;28;20037;-81
2020/12/19 09:53:34;;;;;;;18.05;7.47;;;7.00;99.40;;;;;;5021952;28;20361;-83
2020/12/19 09:56:00;;;;;;;15.02;7.68;;;7.00;99.10;;;;;;5015689;28;20038;-82
2020/12/19 09:58:25;;;;;;;16.67;7.93;;;7.10;98.40;;;;;;5018719;28;20026;-82
2020/12/19 10:00:51;;;;;;;16.88;8.55;;;7.20;97.60;;;;;;5020346;28;20033;-82
2020/12/19 10:03:17;;;;;;;14.02;6.93;;;7.30;97.50;;;;;;5018504;28;20057;-82
2020/12/19 10:05:42;;;;;;;21.85;8.15;;;7.40;95.30;;;;;;5030817;28;20095;-83
2020/12/19 10:08:08;;;;;;;19.05;7.22;;;7.50;95.40;;;;;;5022328;28;20151;-82
2020/12/19 10:10:34;;;;;;;23.52;7.72;;;7.60;95.40;;;;;;5020452;28;20651;-83
2020/12/19 10:13:01;;;;;;;17.35;8.27;;;7.70;94.80;;;;;;5000118;28;20029;-82
2020/12/19 10:15:26;;;;;;;14.80;6.85;;;7.70;94.00;;;;;;5019610;28;20036;-81
2020/12/19 10:17:52;;;;;;;16.10;6.82;;;7.90;93.70;;;;;;5019824;28;20030;-79
2020/12/19 10:20:17;;;;;;;16.35;7.68;;;8.00;93.20;;;;;;5018543;28;20033;-81
2020/12/19 10:22:43;;;;;;;18.73;7.22;;;8.10;92.30;;;;;;5021399;28;20084;-80
2020/12/19 10:25:09;;;;;;;14.38;6.40;;;8.30;91.80;;;;;;5019814;28;20080;-80
2020/12/19 10:27:34;;;;;;;18.85;7.43;;;8.30;91.50;;;;;;5018338;28;20030;-80
2020/12/19 10:30:00;;;;;;;18.30;7.68;;;8.40;91.00;;;;;;5011430;28;20053;-81
2020/12/19 10:32:26;;;;;;;15.70;7.07;;;8.50;90.90;;;;;;5003771;28;20068;-83
2020/12/19 10:34:51;;;;;;;16.45;6.93;;;8.60;90.50;;;;;;5016206;28;20627;-81
2020/12/19 10:37:17;;;;;;;16.95;6.78;;;8.70;90.00;;;;;;5018774;28;20093;-81
2020/12/19 10:39:42;;;;;;;13.32;6.53;;;8.80;89.50;;;;;;5018501;28;20648;-81
2020/12/19 10:42:08;;;;;;;16.63;5.75;;;8.90;88.40;;;;;;5019024;28;20030;-81
2020/12/19 10:44:33;;;;;;;16.60;5.85;;;9.00;87.60;;;;;;5018101;28;20064;-80
2020/12/19 10:46:59;;;;;;;8.75;4.90;;;9.20;86.50;;;;;;5030566;28;20032;-81
2020/12/19 10:49:25;;;;;;;10.40;5.25;;;9.40;84.30;;;;;;5026995;28;20034;-82
2020/12/19 10:51:51;;;;;;;11.10;5.57;;;9.40;83.70;;;;;;5010372;28;20210;-82
2020/12/19 10:54:17;;;;;;;9.77;5.35;;;9.50;83.60;;;;;;5026491;28;20191;-79
2020/12/19 10:56:42;;;;;;;8.30;4.38;;;9.70;82.30;;;;;;5017825;28;20037;-80
2020/12/19 10:59:08;;;;;;;15.20;4.82;;;9.70;82.30;;;;;;5016046;28;20030;-80
2020/12/19 11:01:33;;;;;;;9.75;4.38;;;9.90;81.10;;;;;;5023881;28;20029;-80
2020/12/19 11:03:59;;;;;;;13.10;5.22;;;10.00;79.20;;;;;;5024138;28;20110;-80
2020/12/19 11:06:26;;;;;;;6.43;4.00;;;10.10;77.80;;;;;;5025201;28;20041;-79
2020/12/19 11:08:52;;;;;;;9.48;4.10;;;10.30;75.90;;;;;;5021145;28;20046;-82
2020/12/19 11:11:19;;;;;;;10.15;4.32;;;10.40;75.80;;;;;;5019299;28;20114;-82
2020/12/19 11:13:44;;;;;;;12.80;4.13;;;10.40;75.70;;;;;;5020793;28;20057;-79
2020/12/19 11:16:19;;;;;;;6.32;3.78;;;10.40;74.80;;;;;;5016115;28;20658;-82
2020/12/19 11:18:44;;;;;;;10.95;4.22;;;10.50;74.20;;;;;;5012938;28;20057;-81
2020/12/19 11:21:10;;;;;;;9.38;5.03;;;10.70;73.00;;;;;;5003997;28;20053;-81
2020/12/19 11:23:37;;;;;;;9.85;3.92;;;10.80;72.90;;;;;;5016041;28;20045;-81
2020/12/19 11:26:03;;;;;;;11.27;4.47;;;10.80;72.90;;;;;;4996159;28;20044;-81
2020/12/19 11:28:28;;;;;;;13.30;5.18;;;10.90;73.10;;;;;;5021516;28;20030;-81
2020/12/19 11:30:54;;;;;;;10.48;4.07;;;10.90;71.70;;;;;;5014850;28;20056;-82
2020/12/19 11:33:19;;;;;;;17.23;4.93;;;11.10;71.50;;;;;;5023691;28;20124;-82
2020/12/19 11:35:45;;;;;;;9.32;4.43;;;11.20;70.80;;;;;;5024312;28;20946;-79
2020/12/19 11:38:10;;;;;;;14.48;3.67;;;11.20;71.10;;;;;;5016935;28;20037;-82
2020/12/19 11:40:36;;;;;;;9.57;3.67;;;11.30;68.80;;;;;;5020568;28;20034;-82
2020/12/19 11:43:02;;;;;;;9.52;4.55;;;11.40;69.30;;;;;;5008894;28;20044;-82
2020/12/19 11:45:27;;;;;;;9.93;4.05;;;11.40;69.40;;;;;;5022052;28;20037;-82
2020/12/19 11:47:53;;;;;;;14.55;4.20;;;11.50;69.00;;;;;;5021150;28;20032;-83
2020/12/19 11:50:18;;;;;;;15.60;3.53;;;11.60;68.00;;;;;;5020241;28;20674;-82
2020/12/19 11:52:44;;;;;;;8.43;3.85;;;11.70;67.50;;;;;;5000647;28;20034;-82
2020/12/19 11:55:09;;;;;;;10.32;3.45;;;11.70;67.60;;;;;;5017198;28;20125;-83
2020/12/19 11:57:36;;;;;;;10.90;4.13;;;11.80;67.30;;;;;;5017250;28;20034;-82
2020/12/19 12:00:03;;;;;;;10.45;3.97;;;11.90;67.90;;;;;;5017504;28;20526;-83
2020/12/19 12:02:29;;;;;;;16.10;4.05;;;12.00;67.60;;;;;;5012639;28;20120;-82
2020/12/19 12:04:54;;;;;;;12.73;3.42;;;12.30;66.10;;;;;;5022303;28;20564;-81
2020/12/19 12:07:20;;;;;;;10.15;3.95;;;12.50;64.40;;;;;;5009734;28;20040;-82
2020/12/19 12:09:45;;;;;;;10.70;4.07;;;12.70;62.20;;;;;;5020755;28;20479;-81
2020/12/19 12:12:11;;;;;;;10.85;3.53;;;12.80;61.50;;;;;;5002007;28;20040;-82
2020/12/19 12:14:36;;;;;;;11.52;4.20;;;12.90;61.00;;;;;;5020676;28;20025;-82
2020/12/19 12:17:02;;;;;;;6.35;2.50;;;12.90;60.80;;;;;;5018483;28;20037;-81
2020/12/19 12:19:27;;;;;;;8.95;2.63;;;12.80;57.80;;;;;;5016744;28;20034;-81
2020/12/19 12:21:53;;;;;;;4.57;2.53;;;12.90;57.20;;;;;;5021826;28;20040;-82
2020/12/19 12:24:18;;;;;;;6.72;2.95;;;12.80;57.40;;;;;;5026855;28;20026;-82
2020/12/19 12:26:44;;;;;;;5.65;2.72;;;12.80;57.80;;;;;;5020533;28;20064;-81
2020/12/19 12:29:10;;;;;;;7.75;3.08;;;12.70;57.60;;;;;;4999425;28;20110;-82
2020/12/19 12:31:35;;;;;;;5.85;2.90;;;12.70;57.70;;;;;;5000701;28;20449;-83
2020/12/19 12:34:01;;;;;;;6.97;3.70;;;12.60;58.60;;;;;;5014593;28;20046;-81
2020/12/19 12:36:29;;;;;;;11.77;4.90;;;12.70;58.70;;;;;;5000546;28;20412;-80
2020/12/19 12:38:54;;;;;;;12.38;5.32;;;12.80;59.80;;;;;;5001542;28;20124;-81
2020/12/19 12:41:20;;;;;;;8.48;4.43;;;12.70;59.80;;;;;;4998981;28;20499;-83
2020/12/19 12:43:46;;;;;;;8.18;3.90;;;12.70;60.50;;;;;;4997973;28;20687;-82
2020/12/19 12:46:13;;;;;;;10.45;4.43;;;12.60;59.00;;;;;;4995452;28;20035;-82
2020/12/19 12:48:39;;;;;;;7.35;4.00;;;12.50;58.50;;;;;;4993615;28;20105;-84